createdAt,value
2023-03-06T00:00:48.161Z,78.15
2023-03-06T00:03:14.669Z,78.58
2023-03-06T00:05:41.249Z,78.62
2023-03-06T00:08:08.588Z,78.28
2023-03-06T00:10:35.118Z,78.21
2023-03-06T00:13:06.270Z,78.58
2023-03-06T00:15:33.719Z,78.57
2023-03-06T00:18:04.323Z,78.82
2023-03-06T00:20:31.137Z,79.01
2023-03-06T00:22:57.875Z,79.04
2023-03-06T00:25:24.723Z,79.17
2023-03-06T00:27:51.488Z,79.27
2023-03-06T00:30:21.507Z,79.49
2023-03-06T00:32:48.389Z,79.58
2023-03-06T00:35:15.710Z,80.18
2023-03-06T00:37:42.334Z,80.57
2023-03-06T00:40:11.667Z,80.36
2023-03-06T00:42:38.021Z,80.43
2023-03-06T00:45:05.453Z,80.40
2023-03-06T00:47:31.978Z,80.40
2023-03-06T00:49:58.387Z,80.21
2023-03-06T00:52:25.027Z,80.70
2023-03-06T00:54:51.535Z,80.88
2023-03-06T00:57:17.976Z,82.09
2023-03-06T00:59:44.360Z,82.03
2023-03-06T01:02:10.774Z,81.75
2023-03-06T01:04:37.159Z,81.57
2023-03-06T01:07:03.571Z,81.31
2023-03-06T01:09:29.945Z,80.89
2023-03-06T01:11:56.343Z,81.10
2023-03-06T01:14:23.209Z,80.96
2023-03-06T01:16:49.950Z,81.33
2023-03-06T01:19:17.096Z,81.82
2023-03-06T01:21:43.486Z,81.79
2023-03-06T01:24:09.844Z,81.47
2023-03-06T01:26:36.257Z,81.54
2023-03-06T01:29:03.000Z,81.50
2023-03-06T01:31:29.510Z,82.32
2023-03-06T01:33:55.962Z,82.55
2023-03-06T01:36:22.343Z,82.22
2023-03-06T01:38:48.697Z,81.90
2023-03-06T01:41:16.054Z,81.60
2023-03-06T01:43:45.039Z,81.87
2023-03-06T01:46:33.236Z,81.99
2023-03-06T01:49:18.292Z,82.03
2023-03-06T01:52:06.509Z,82.23
2023-03-06T01:54:41.832Z,82.22
2023-03-06T01:57:13.814Z,82.46
2023-03-06T01:59:42.215Z,82.67
2023-03-06T02:02:11.945Z,82.49
2023-03-06T02:04:41.160Z,82.87
2023-03-06T02:07:08.253Z,83.19
2023-03-06T02:09:35.700Z,83.36
2023-03-06T02:12:06.031Z,83.69
2023-03-06T02:14:32.458Z,83.82
2023-03-06T02:16:58.938Z,84.06
2023-03-06T02:19:48.258Z,84.40
2023-03-06T02:22:14.627Z,84.00
2023-03-06T02:24:54.995Z,84.00
2023-03-06T02:27:23.327Z,84.32
2023-03-06T02:29:49.702Z,84.35
2023-03-06T02:32:16.219Z,84.12
2023-03-06T02:34:46.470Z,84.30
2023-03-06T02:37:12.840Z,84.26
2023-03-06T02:39:44.055Z,84.19
2023-03-06T02:42:10.469Z,83.44
2023-03-06T02:44:37.286Z,83.36
2023-03-06T02:47:03.812Z,83.33
2023-03-06T02:49:30.186Z,83.40
2023-03-06T02:51:56.582Z,83.50
2023-03-06T02:54:22.938Z,83.20
2023-03-06T02:56:49.302Z,82.87
2023-03-06T02:59:15.674Z,82.56
2023-03-06T03:01:42.072Z,82.39
2023-03-06T03:04:08.708Z,82.80
2023-03-06T03:06:35.107Z,82.70
2023-03-06T03:09:01.530Z,82.88
2023-03-06T03:11:27.876Z,82.61
2023-03-06T03:13:54.291Z,82.40
2023-03-06T03:16:20.722Z,82.36
2023-03-06T03:18:51.125Z,82.19
2023-03-06T03:21:17.775Z,82.52
2023-03-06T03:23:44.129Z,82.34
2023-03-06T03:26:13.545Z,82.03
2023-03-06T03:28:40.024Z,82.10
2023-03-06T03:31:08.984Z,82.04
2023-03-06T03:33:35.451Z,81.82
2023-03-06T03:36:04.452Z,81.89
2023-03-06T03:38:31.144Z,82.03
2023-03-06T03:40:57.493Z,82.14
2023-03-06T03:43:24.089Z,82.06
2023-03-06T03:45:53.083Z,82.00
2023-03-06T03:48:19.814Z,82.35
2023-03-06T03:50:46.172Z,82.04
2023-03-06T03:53:12.629Z,82.78
2023-03-06T03:55:39.346Z,82.83
2023-03-06T03:58:05.735Z,83.10
2023-03-06T04:00:32.224Z,83.15
2023-03-06T04:02:58.587Z,84.18
2023-03-06T04:05:24.938Z,85.23
2023-03-06T04:07:51.318Z,85.25
2023-03-06T04:10:17.790Z,85.23
2023-03-06T04:12:44.179Z,84.94
2023-03-06T04:15:10.841Z,85.78
2023-03-06T04:17:38.023Z,85.62
2023-03-06T04:20:05.016Z,85.31
2023-03-06T04:22:31.392Z,85.59
2023-03-06T04:24:57.750Z,84.92
2023-03-06T04:27:24.257Z,85.21
2023-03-06T04:29:50.606Z,85.08
2023-03-06T04:32:17.172Z,84.82
2023-03-06T04:34:43.906Z,85.35
2023-03-06T04:37:20.259Z,85.58
2023-03-06T04:39:47.008Z,84.84
2023-03-06T04:42:13.376Z,84.90
2023-03-06T04:44:39.775Z,85.47
2023-03-06T04:47:06.446Z,84.82
2023-03-06T04:49:32.952Z,85.16
2023-03-06T04:51:59.310Z,84.71
2023-03-06T04:54:25.847Z,84.62
2023-03-06T04:56:52.205Z,84.77
2023-03-06T04:59:18.610Z,84.79
2023-03-06T05:01:44.974Z,84.94
2023-03-06T05:04:11.334Z,86.13
2023-03-06T05:06:37.880Z,85.62
2023-03-06T05:09:04.570Z,85.84
2023-03-06T05:11:30.969Z,85.40
2023-03-06T05:13:57.403Z,85.81
2023-03-06T05:16:23.812Z,85.04
2023-03-06T05:18:50.737Z,85.53
2023-03-06T05:21:17.211Z,85.79
2023-03-06T05:23:43.678Z,85.47
2023-03-06T05:26:12.898Z,85.59
2023-03-06T05:28:39.467Z,84.86
2023-03-06T05:31:06.637Z,85.05
2023-03-06T05:33:34.635Z,85.31
2023-03-06T05:36:01.893Z,85.49
2023-03-06T05:38:28.927Z,85.88
2023-03-06T05:40:55.274Z,86.67
2023-03-06T05:43:21.665Z,86.75
2023-03-06T05:45:50.185Z,86.19
2023-03-06T05:48:16.547Z,85.96
2023-03-06T05:50:42.928Z,85.98
2023-03-06T05:53:09.520Z,86.22
2023-03-06T05:55:35.877Z,85.74
2023-03-06T05:58:02.242Z,85.35
2023-03-06T06:00:28.665Z,85.70
2023-03-06T06:02:55.040Z,85.98
2023-03-06T06:05:21.400Z,86.02
2023-03-06T06:07:47.777Z,85.96
2023-03-06T06:10:14.268Z,85.74
2023-03-06T06:12:40.686Z,86.43
2023-03-06T06:15:07.524Z,85.70
2023-03-06T06:17:33.885Z,85.72
2023-03-06T06:20:00.359Z,85.18
2023-03-06T06:22:26.715Z,85.29
2023-03-06T06:24:53.061Z,85.08
2023-03-06T06:27:19.434Z,85.64
2023-03-06T06:29:45.798Z,85.60
2023-03-06T06:32:12.250Z,85.79
2023-03-06T06:34:38.627Z,86.33
2023-03-06T06:37:05.339Z,85.61
2023-03-06T06:39:31.811Z,85.14
2023-03-06T06:42:20.244Z,85.29
2023-03-06T06:44:44.632Z,85.49
2023-03-06T06:47:26.504Z,85.42
2023-03-06T06:49:54.732Z,85.45
2023-03-06T06:52:21.830Z,85.64
2023-03-06T06:54:48.208Z,85.97
2023-03-06T06:57:14.760Z,85.43
2023-03-06T06:59:41.198Z,85.24
2023-03-06T07:02:07.756Z,84.93
2023-03-06T07:04:34.109Z,84.54
2023-03-06T07:07:01.154Z,84.08
2023-03-06T07:09:27.772Z,84.76
2023-03-06T07:11:54.137Z,85.21
2023-03-06T07:14:20.544Z,84.56
2023-03-06T07:16:46.938Z,84.38
2023-03-06T07:19:13.336Z,85.13
2023-03-06T07:21:40.025Z,84.64
2023-03-06T07:24:06.803Z,84.31
2023-03-06T07:26:34.790Z,84.12
2023-03-06T07:29:01.841Z,83.22
2023-03-06T07:31:28.542Z,83.54
2023-03-06T07:33:54.968Z,82.74
2023-03-06T07:36:23.034Z,83.83
2023-03-06T07:38:49.464Z,83.26
2023-03-06T07:41:16.512Z,82.45
2023-03-06T07:43:44.608Z,83.43
2023-03-06T07:46:12.779Z,82.27
2023-03-06T07:48:39.650Z,81.90
2023-03-06T07:51:09.106Z,81.67
2023-03-06T07:53:35.660Z,82.21
2023-03-06T07:56:08.535Z,81.81
2023-03-06T07:58:39.626Z,81.32
2023-03-06T08:01:08.375Z,80.70
2023-03-06T08:03:35.073Z,80.41
2023-03-06T08:06:11.573Z,80.96
2023-03-06T08:08:39.716Z,80.60
2023-03-06T08:11:07.461Z,79.70
2023-03-06T08:13:34.630Z,78.71
2023-03-06T08:16:01.378Z,79.35
2023-03-06T08:18:28.545Z,79.08
2023-03-06T08:21:23.520Z,77.22
2023-03-06T08:23:50.466Z,77.13
2023-03-06T08:26:23.447Z,77.74
2023-03-06T08:28:51.415Z,76.89
2023-03-06T08:31:27.436Z,76.68
2023-03-06T08:33:55.860Z,77.44
2023-03-06T08:36:22.388Z,77.12
2023-03-06T08:38:48.767Z,78.60
2023-03-06T08:41:15.720Z,78.05
2023-03-06T08:43:42.163Z,77.83
2023-03-06T08:46:10.042Z,77.89
2023-03-06T08:48:36.518Z,76.76
2023-03-06T08:51:02.967Z,77.22
2023-03-06T08:53:42.098Z,77.28
2023-03-06T08:56:30.409Z,75.63
2023-03-06T08:58:58.765Z,76.71
2023-03-06T09:01:27.920Z,77.04
2023-03-06T09:03:56.471Z,78.08
2023-03-06T09:06:24.240Z,76.90
2023-03-06T09:08:51.668Z,76.69
2023-03-06T09:11:18.482Z,76.56
2023-03-06T09:13:44.861Z,76.25
2023-03-06T09:16:11.977Z,76.42
2023-03-06T09:18:38.861Z,76.20
2023-03-06T09:21:06.621Z,76.24
2023-03-06T09:23:33.786Z,75.95
2023-03-06T09:26:00.856Z,75.54
2023-03-06T09:28:27.582Z,75.76
2023-03-06T09:30:54.422Z,76.40
2023-03-06T09:33:21.360Z,76.05
2023-03-06T09:35:56.433Z,75.48
2023-03-06T09:38:25.595Z,75.02
2023-03-06T09:41:02.621Z,75.46
2023-03-06T09:43:35.382Z,75.24
2023-03-06T09:46:13.407Z,74.02
2023-03-06T09:48:53.662Z,72.10
2023-03-06T09:51:26.035Z,72.07
2023-03-06T09:54:13.651Z,74.48
2023-03-06T09:56:46.984Z,74.26
2023-03-06T09:59:20.077Z,74.51
2023-03-06T10:01:58.648Z,74.81
2023-03-06T10:04:43.228Z,74.42
2023-03-06T10:07:22.390Z,75.40
2023-03-06T10:09:56.639Z,75.52
2023-03-06T10:12:29.127Z,75.04
2023-03-06T10:15:05.390Z,74.40
2023-03-06T10:17:37.697Z,74.64
2023-03-06T10:20:23.146Z,74.11
2023-03-06T10:23:01.022Z,74.07
2023-03-06T10:25:46.333Z,72.38
2023-03-06T10:28:17.394Z,73.40
2023-03-06T10:31:23.577Z,74.72
2023-03-06T10:33:58.630Z,73.61
2023-03-06T10:36:27.232Z,75.16
2023-03-06T10:38:55.599Z,75.41
2023-03-06T10:41:25.801Z,74.96
2023-03-06T10:44:01.233Z,74.66
2023-03-06T10:46:32.988Z,75.00
2023-03-06T10:49:02.372Z,75.47
2023-03-06T10:51:30.334Z,75.62
2023-03-06T10:53:59.462Z,75.10
2023-03-06T10:56:43.654Z,74.20
2023-03-06T10:59:13.948Z,74.54
2023-03-06T11:01:42.310Z,73.54
2023-03-06T11:04:21.146Z,71.99
2023-03-06T11:06:48.253Z,73.55
2023-03-06T11:09:26.807Z,73.07
2023-03-06T11:12:26.266Z,73.59
2023-03-06T11:15:14.432Z,73.37
2023-03-06T11:17:49.776Z,73.19
2023-03-06T11:20:31.779Z,73.44
2023-03-06T11:23:20.750Z,72.70
2023-03-06T11:25:48.981Z,71.10
2023-03-06T11:28:34.928Z,70.99
2023-03-06T11:31:10.391Z,71.75
2023-03-06T11:33:49.748Z,70.20
2023-03-06T11:36:25.382Z,71.32
2023-03-06T11:38:53.828Z,70.82
2023-03-06T11:41:33.667Z,69.83
2023-03-06T11:44:21.021Z,70.14
2023-03-06T11:46:52.568Z,69.90
2023-03-06T11:49:27.454Z,70.74
2023-03-06T11:52:03.294Z,69.69
2023-03-06T11:54:29.954Z,69.44
2023-03-06T11:57:01.580Z,67.37
2023-03-06T11:59:46.195Z,68.38
2023-03-06T12:02:37.690Z,69.81
2023-03-06T12:05:12.127Z,69.81
2023-03-06T12:07:54.827Z,68.99
2023-03-06T12:10:30.976Z,68.14
2023-03-06T12:13:35.754Z,69.26
2023-03-06T12:16:17.494Z,68.75
2023-03-06T12:18:56.030Z,68.07
2023-03-06T12:21:38.458Z,68.31
2023-03-06T12:24:16.888Z,68.71
2023-03-06T12:26:57.090Z,69.06
2023-03-06T12:29:45.230Z,68.21
2023-03-06T12:32:24.891Z,68.19
2023-03-06T12:35:19.876Z,68.19
2023-03-06T12:37:52.456Z,65.79
2023-03-06T12:40:36.108Z,67.60
2023-03-06T12:43:43.375Z,65.95
2023-03-06T12:46:15.986Z,65.11
2023-03-06T12:48:48.463Z,66.37
2023-03-06T12:51:20.386Z,65.50
2023-03-06T12:53:47.809Z,65.21
2023-03-06T12:56:16.000Z,63.10
2023-03-06T12:58:56.949Z,62.80
2023-03-06T13:01:58.006Z,63.27
2023-03-06T13:04:34.435Z,62.26
2023-03-06T13:07:27.732Z,60.72
2023-03-06T13:10:20.245Z,60.47
2023-03-06T13:12:56.904Z,61.85
2023-03-06T13:15:35.221Z,59.03
2023-03-06T13:18:23.899Z,61.15
2023-03-06T13:20:52.428Z,59.87
2023-03-06T13:23:33.832Z,58.82
2023-03-06T13:26:07.914Z,56.48
2023-03-06T13:28:50.244Z,56.57
2023-03-06T13:31:27.909Z,56.29
2023-03-06T13:33:58.579Z,57.84
2023-03-06T13:36:39.077Z,54.65
2023-03-06T13:39:10.591Z,57.20
2023-03-06T13:41:58.721Z,58.69
2023-03-06T13:44:25.101Z,56.41
2023-03-06T13:47:00.589Z,57.63
2023-03-06T13:49:28.406Z,57.25
2023-03-06T13:51:54.758Z,57.28
2023-03-06T13:54:54.621Z,57.56
2023-03-06T13:57:40.547Z,56.87
2023-03-06T14:00:28.372Z,56.85
2023-03-06T14:03:36.884Z,58.08
2023-03-06T14:06:35.066Z,56.10
2023-03-06T14:09:30.170Z,56.95
2023-03-06T14:12:08.129Z,55.78
2023-03-06T14:14:41.670Z,56.03
2023-03-06T14:17:23.183Z,56.57
2023-03-06T14:19:49.998Z,57.22
2023-03-06T14:22:22.068Z,55.49
2023-03-06T14:24:59.723Z,53.36
2023-03-06T14:27:49.178Z,50.85
2023-03-06T14:30:18.654Z,50.78
2023-03-06T14:32:45.240Z,50.97
2023-03-06T14:35:32.054Z,49.75
2023-03-06T14:38:04.574Z,51.61
2023-03-06T14:40:35.804Z,50.76
2023-03-06T14:43:22.957Z,50.73
2023-03-06T14:46:00.812Z,51.35
2023-03-06T14:48:47.911Z,53.31
2023-03-06T14:51:21.198Z,50.48
2023-03-06T14:53:52.210Z,51.34
2023-03-06T14:56:24.255Z,51.63
2023-03-06T14:59:03.467Z,53.16
2023-03-06T15:01:44.537Z,53.46
2023-03-06T15:04:30.968Z,54.45
2023-03-06T15:06:58.700Z,55.46
2023-03-06T15:09:31.330Z,55.49
2023-03-06T15:12:03.581Z,55.99
2023-03-06T15:14:41.913Z,54.68
2023-03-06T15:17:20.425Z,54.78
2023-03-06T15:19:49.567Z,54.96
2023-03-06T15:22:40.640Z,54.21
2023-03-06T15:25:15.818Z,54.93
2023-03-06T15:27:51.062Z,55.41
2023-03-06T15:30:29.512Z,55.16
2023-03-06T15:33:09.160Z,54.50
2023-03-06T15:35:37.960Z,54.47
2023-03-06T15:38:23.799Z,54.10
2023-03-06T15:40:58.315Z,54.65
2023-03-06T15:43:25.039Z,55.19
2023-03-06T15:45:58.492Z,55.86
2023-03-06T15:48:25.201Z,54.77
2023-03-06T15:50:51.699Z,54.77
2023-03-06T15:53:19.543Z,53.51
2023-03-06T15:55:46.657Z,54.44
2023-03-06T15:58:18.003Z,54.36
2023-03-06T16:00:44.538Z,54.49
2023-03-06T16:03:11.710Z,54.55
2023-03-06T16:05:38.648Z,53.72
2023-03-06T16:08:06.064Z,55.07
2023-03-06T16:10:35.876Z,54.65
2023-03-06T16:13:13.592Z,54.85
2023-03-06T16:15:44.922Z,54.31
2023-03-06T16:18:13.051Z,53.87
2023-03-06T16:20:40.190Z,53.74
2023-03-06T16:23:10.203Z,54.55
2023-03-06T16:25:40.057Z,55.54
2023-03-06T16:28:11.885Z,55.30
2023-03-06T16:30:38.535Z,55.49
2023-03-06T16:33:05.347Z,55.22
2023-03-06T16:35:31.918Z,56.08
2023-03-06T16:37:59.890Z,56.14
2023-03-06T16:40:41.145Z,56.26
2023-03-06T16:43:08.728Z,57.99
2023-03-06T16:45:41.193Z,58.92
2023-03-06T16:48:13.600Z,60.79
2023-03-06T16:50:40.403Z,62.43
2023-03-06T16:53:07.560Z,62.29
2023-03-06T16:55:33.973Z,63.09
2023-03-06T16:58:00.330Z,63.67
2023-03-06T17:00:31.173Z,64.35
2023-03-06T17:02:57.707Z,64.23
2023-03-06T17:05:24.098Z,65.04
2023-03-06T17:07:50.534Z,64.95
2023-03-06T17:10:18.809Z,65.81
2023-03-06T17:12:45.277Z,66.29
2023-03-06T17:15:12.085Z,66.51
2023-03-06T17:17:38.579Z,66.87
2023-03-06T17:20:07.550Z,65.89
2023-03-06T17:22:35.456Z,67.26
2023-03-06T17:25:03.391Z,66.80
2023-03-06T17:27:30.074Z,66.72
2023-03-06T17:29:57.792Z,67.47
2023-03-06T17:32:24.274Z,66.83
2023-03-06T17:34:50.741Z,67.54
2023-03-06T17:37:17.224Z,67.20
2023-03-06T17:39:43.863Z,67.77
2023-03-06T17:42:10.430Z,67.72
2023-03-06T17:44:38.115Z,67.85
2023-03-06T17:47:05.219Z,68.30
2023-03-06T17:49:31.770Z,68.39
2023-03-06T17:52:04.508Z,68.11
2023-03-06T17:54:33.009Z,68.84
2023-03-06T17:57:05.214Z,68.82
2023-03-06T17:59:34.160Z,69.42
2023-03-06T18:02:01.393Z,69.05
2023-03-06T18:04:27.865Z,68.43
2023-03-06T18:06:54.410Z,68.92
2023-03-06T18:09:20.855Z,69.28
2023-03-06T18:11:47.299Z,69.08
2023-03-06T18:14:14.012Z,69.50
2023-03-06T18:16:40.447Z,70.30
2023-03-06T18:19:06.897Z,71.25
2023-03-06T18:21:33.290Z,71.01
2023-03-06T18:23:59.657Z,72.35
2023-03-06T18:26:28.719Z,71.56
2023-03-06T18:29:01.366Z,72.76
2023-03-06T18:31:33.740Z,72.51
2023-03-06T18:34:06.613Z,73.72
2023-03-06T18:36:34.586Z,73.36
2023-03-06T18:39:03.580Z,74.56
2023-03-06T18:41:30.922Z,74.11
2023-03-06T18:44:00.049Z,74.55
2023-03-06T18:46:30.562Z,75.31
2023-03-06T18:48:57.000Z,75.26
2023-03-06T18:51:23.397Z,75.87
2023-03-06T18:53:49.755Z,75.04
2023-03-06T18:56:21.642Z,75.40
2023-03-06T18:58:48.783Z,76.07
2023-03-06T19:01:15.252Z,75.63
2023-03-06T19:03:41.881Z,76.44
2023-03-06T19:06:11.391Z,75.73
2023-03-06T19:08:38.939Z,76.22
2023-03-06T19:11:08.151Z,76.78
2023-03-06T19:13:34.527Z,77.22
2023-03-06T19:16:01.336Z,77.96
2023-03-06T19:18:29.229Z,76.71
2023-03-06T19:20:56.559Z,76.86
2023-03-06T19:23:23.163Z,77.43
2023-03-06T19:25:59.567Z,77.68
2023-03-06T19:28:26.627Z,77.58
2023-03-06T19:30:53.437Z,77.22
2023-03-06T19:33:19.809Z,77.71
2023-03-06T19:35:46.479Z,77.87
2023-03-06T19:38:13.934Z,78.03
2023-03-06T19:40:40.307Z,77.36
2023-03-06T19:43:06.708Z,77.80
2023-03-06T19:45:33.113Z,77.59
2023-03-06T19:48:00.893Z,77.54
2023-03-06T19:50:30.637Z,77.75
2023-03-06T19:52:57.497Z,78.48
2023-03-06T19:55:26.227Z,77.93
2023-03-06T19:57:53.117Z,78.45
2023-03-06T20:00:20.532Z,77.86
2023-03-06T20:02:47.075Z,78.13
2023-03-06T20:05:13.432Z,77.74
2023-03-06T20:07:39.851Z,77.92
2023-03-06T20:10:06.393Z,77.46
2023-03-06T20:12:33.262Z,77.83
2023-03-06T20:15:00.168Z,77.69
2023-03-06T20:17:26.611Z,77.73
2023-03-06T20:19:53.413Z,77.44
2023-03-06T20:22:19.785Z,77.68
2023-03-06T20:24:46.417Z,77.85
2023-03-06T20:27:13.016Z,78.18
2023-03-06T20:29:43.267Z,78.33
2023-03-06T20:32:09.719Z,77.70
2023-03-06T20:34:38.689Z,77.95
2023-03-06T20:37:06.254Z,78.17
2023-03-06T20:39:32.957Z,78.37
2023-03-06T20:42:00.042Z,78.63
2023-03-06T20:44:27.378Z,79.28
2023-03-06T20:46:55.225Z,79.08
2023-03-06T20:49:22.011Z,79.28
2023-03-06T20:51:49.872Z,79.64
2023-03-06T20:54:17.254Z,79.68
2023-03-06T20:56:46.756Z,79.77
2023-03-06T20:59:14.134Z,79.90
2023-03-06T21:01:43.481Z,79.80
2023-03-06T21:04:13.773Z,80.09
2023-03-06T21:06:43.524Z,80.37
2023-03-06T21:09:11.232Z,80.60
2023-03-06T21:11:37.620Z,80.25
2023-03-06T21:14:04.094Z,80.50
2023-03-06T21:16:30.908Z,80.84
2023-03-06T21:18:59.377Z,80.43
2023-03-06T21:21:30.343Z,80.46
2023-03-06T21:23:57.491Z,80.81
2023-03-06T21:26:26.458Z,80.67
2023-03-06T21:28:52.880Z,80.67
2023-03-06T21:31:20.986Z,80.80
2023-03-06T21:33:48.889Z,80.94
2023-03-06T21:36:15.946Z,80.63
2023-03-06T21:38:42.326Z,81.00
2023-03-06T21:41:10.971Z,80.50
2023-03-06T21:43:37.367Z,80.92
2023-03-06T21:46:03.938Z,81.05
2023-03-06T21:48:30.419Z,80.97
2023-03-06T21:51:10.412Z,81.05
2023-03-06T21:53:36.936Z,80.85
2023-03-06T21:56:04.678Z,80.61
2023-03-06T21:58:31.657Z,80.52
2023-03-06T22:00:58.329Z,81.14
2023-03-06T22:03:24.755Z,80.87
2023-03-06T22:05:52.057Z,81.04
2023-03-06T22:08:21.302Z,81.07
2023-03-06T22:10:48.915Z,80.97
2023-03-06T22:13:15.754Z,80.90
2023-03-06T22:15:52.966Z,81.36
2023-03-06T22:18:19.375Z,80.80
2023-03-06T22:20:45.810Z,81.02
2023-03-06T22:23:12.262Z,81.49
2023-03-06T22:25:38.699Z,81.48
2023-03-06T22:28:05.122Z,81.20
2023-03-06T22:30:31.637Z,81.77
2023-03-06T22:32:58.403Z,81.73
2023-03-06T22:35:25.035Z,81.17
2023-03-06T22:37:51.437Z,81.50
2023-03-06T22:40:17.912Z,81.89
2023-03-06T22:42:44.308Z,81.70
2023-03-06T22:45:11.186Z,82.05
2023-03-06T22:47:37.994Z,81.64
2023-03-06T22:50:06.049Z,82.15
2023-03-06T22:52:33.119Z,82.04
2023-03-06T22:54:59.499Z,82.05
2023-03-06T22:57:25.909Z,82.03
2023-03-06T22:59:52.276Z,82.03
2023-03-06T23:02:18.644Z,81.89
2023-03-06T23:04:52.054Z,82.05
2023-03-06T23:07:19.745Z,82.59
2023-03-06T23:09:46.322Z,82.46
2023-03-06T23:12:12.688Z,82.36
2023-03-06T23:14:39.267Z,82.45
2023-03-06T23:17:05.672Z,82.11
2023-03-06T23:19:32.177Z,82.46
2023-03-06T23:21:58.548Z,82.52
2023-03-06T23:24:25.201Z,81.59
2023-03-06T23:26:51.721Z,81.56
2023-03-06T23:29:18.103Z,81.58
2023-03-06T23:31:44.468Z,82.39
2023-03-06T23:34:11.522Z,82.71
2023-03-06T23:36:37.896Z,82.84
2023-03-06T23:39:04.326Z,83.07
2023-03-06T23:41:30.690Z,83.73
2023-03-06T23:43:58.349Z,83.49
2023-03-06T23:46:24.973Z,83.81
2023-03-06T23:48:52.225Z,83.82
2023-03-06T23:51:20.669Z,83.52
2023-03-06T23:53:52.506Z,83.64
2023-03-06T23:56:18.896Z,83.61
2023-03-06T23:58:46.384Z,83.17
